createdAt,value
2018-02-24T00:01:11.153Z,2.80
2018-02-24T00:03:37.613Z,2.40
2018-02-24T00:06:04.007Z,3.65
2018-02-24T00:08:30.423Z,2.83
2018-02-24T00:10:56.897Z,2.65
2018-02-24T00:13:23.410Z,1.65
2018-02-24T00:15:49.860Z,2.80
2018-02-24T00:18:16.321Z,2.67
2018-02-24T00:20:42.808Z,2.85
2018-02-24T00:23:09.259Z,1.85
2018-02-24T00:25:35.985Z,2.60
2018-02-24T00:28:03.180Z,1.58
2018-02-24T00:30:29.665Z,3.20
2018-02-24T00:32:56.135Z,3.05
2018-02-24T00:35:22.501Z,2.10
2018-02-24T00:37:49.621Z,2.03
2018-02-24T00:40:16.110Z,2.70
2018-02-24T00:42:42.517Z,3.10
2018-02-24T00:45:09.717Z,2.45
2018-02-24T00:47:36.412Z,2.42
2018-02-24T00:50:03.573Z,2.33
2018-02-24T00:52:30.015Z,2.30
2018-02-24T00:54:56.461Z,2.83
2018-02-24T00:57:23.664Z,2.30
2018-02-24T00:59:50.093Z,2.67
2018-02-24T01:02:16.598Z,2.12
2018-02-24T01:04:43.063Z,2.08
2018-02-24T01:07:09.499Z,1.87
2018-02-24T01:09:37.121Z,2.45
2018-02-24T01:12:03.575Z,2.05
2018-02-24T01:14:30.304Z,2.90
2018-02-24T01:16:56.769Z,1.90
2018-02-24T01:19:23.212Z,1.52
2018-02-24T01:21:49.642Z,2.92
2018-02-24T01:24:17.288Z,2.35
2018-02-24T01:26:43.711Z,2.47
2018-02-24T01:29:10.188Z,2.92
2018-02-24T01:31:36.628Z,2.75
2018-02-24T01:34:03.795Z,1.95
2018-02-24T01:36:30.263Z,2.25
2018-02-24T01:38:56.663Z,2.85
2018-02-24T01:41:24.022Z,1.90
2018-02-24T01:43:50.424Z,1.27
2018-02-24T01:46:17.729Z,2.33
2018-02-24T01:48:44.146Z,2.40
2018-02-24T01:51:10.588Z,1.95
2018-02-24T01:53:37.101Z,2.30
2018-02-24T01:56:03.493Z,2.17
2018-02-24T01:58:29.992Z,2.90
2018-02-24T02:00:56.887Z,2.92
2018-02-24T02:03:23.287Z,2.65
2018-02-24T02:05:50.463Z,3.15
2018-02-24T02:08:16.905Z,2.53
2018-02-24T02:10:43.351Z,2.28
2018-02-24T02:13:10.511Z,2.15
2018-02-24T02:15:37.051Z,2.50
2018-02-24T02:18:03.464Z,1.98
2018-02-24T02:20:29.907Z,1.65
2018-02-24T02:22:57.139Z,1.83
2018-02-24T02:25:23.570Z,1.95
2018-02-24T02:27:50.032Z,2.08
2018-02-24T02:30:16.480Z,2.12
2018-02-24T02:32:42.937Z,3.28
2018-02-24T02:35:09.627Z,2.17
2018-02-24T02:37:35.997Z,2.58
2018-02-24T02:40:02.497Z,2.47
2018-02-24T02:42:28.984Z,2.30
2018-02-24T02:44:55.405Z,2.33
2018-02-24T02:47:21.860Z,1.50
2018-02-24T02:49:48.291Z,1.55
2018-02-24T02:52:14.753Z,2.03
2018-02-24T02:54:41.229Z,2.55
2018-02-24T02:57:07.611Z,2.37
2018-02-24T02:59:34.033Z,3.62
2018-02-24T03:02:00.517Z,3.90
2018-02-24T03:04:27.683Z,2.67
2018-02-24T03:06:54.098Z,2.40
2018-02-24T03:09:20.889Z,2.50
2018-02-24T03:11:48.065Z,3.00
2018-02-24T03:14:14.503Z,2.95
2018-02-24T03:16:41.304Z,2.55
2018-02-24T03:19:07.709Z,2.95
2018-02-24T03:21:34.146Z,2.78
2018-02-24T03:24:00.608Z,2.95
2018-02-24T03:26:27.059Z,2.72
2018-02-24T03:28:54.201Z,2.72
2018-02-24T03:31:20.698Z,2.65
2018-02-24T03:33:47.103Z,3.03
2018-02-24T03:36:13.523Z,2.53
2018-02-24T03:38:40.065Z,2.35
2018-02-24T03:41:07.320Z,2.45
2018-02-24T03:43:33.755Z,2.25
2018-02-24T03:46:00.243Z,2.22
2018-02-24T03:48:26.631Z,2.40
2018-02-24T03:50:53.803Z,2.30
2018-02-24T03:53:20.249Z,2.50
2018-02-24T03:55:46.683Z,2.35
2018-02-24T03:58:13.132Z,2.30
2018-02-24T04:00:39.552Z,2.30
2018-02-24T04:03:05.957Z,2.37
2018-02-24T04:05:33.244Z,3.37
2018-02-24T04:08:00.019Z,2.28
2018-02-24T04:10:26.528Z,2.67
2018-02-24T04:12:53.025Z,2.60
2018-02-24T04:15:20.226Z,2.67
2018-02-24T04:17:46.657Z,2.53
2018-02-24T04:20:13.099Z,2.65
2018-02-24T04:22:39.570Z,3.00
2018-02-24T04:25:05.989Z,2.47
2018-02-24T04:27:32.474Z,2.20
2018-02-24T04:29:58.933Z,2.47
2018-02-24T04:32:25.397Z,2.28
2018-02-24T04:34:51.843Z,2.45
2018-02-24T04:37:18.322Z,1.92
2018-02-24T04:39:44.825Z,2.67
2018-02-24T04:42:12.068Z,2.20
2018-02-24T04:44:39.224Z,2.08
2018-02-24T04:47:06.361Z,2.53
2018-02-24T04:49:33.549Z,2.28
2018-02-24T04:52:00.040Z,2.17
2018-02-24T04:54:27.252Z,2.17
2018-02-24T04:56:53.652Z,2.30
2018-02-24T04:59:20.142Z,2.08
2018-02-24T05:01:46.576Z,1.85
2018-02-24T05:04:12.997Z,1.92
2018-02-24T05:06:39.416Z,2.25
2018-02-24T05:09:05.854Z,2.00
2018-02-24T05:11:32.204Z,2.03
2018-02-24T05:13:59.427Z,2.10
2018-02-24T05:16:25.881Z,2.28
2018-02-24T05:18:52.323Z,2.33
2018-02-24T05:21:18.744Z,1.87
2018-02-24T05:23:45.387Z,1.67
2018-02-24T05:26:12.589Z,2.50
2018-02-24T05:28:39.759Z,2.10
2018-02-24T05:31:06.245Z,1.83
2018-02-24T05:33:32.693Z,2.30
2018-02-24T05:35:59.158Z,2.60
2018-02-24T05:38:25.948Z,1.83
2018-02-24T05:40:53.152Z,1.60
2018-02-24T05:43:19.575Z,2.05
2018-02-24T05:45:46.766Z,2.22
2018-02-24T05:48:13.194Z,1.67
2018-02-24T05:50:39.647Z,1.80
2018-02-24T05:53:06.861Z,1.92
2018-02-24T05:55:33.327Z,1.98
2018-02-24T05:58:00.668Z,2.03
2018-02-24T06:00:27.111Z,1.73
2018-02-24T06:02:53.537Z,2.42
2018-02-24T06:05:19.977Z,1.95
2018-02-24T06:07:46.422Z,2.12
2018-02-24T06:10:12.869Z,2.80
2018-02-24T06:12:39.259Z,2.10
2018-02-24T06:15:06.050Z,1.70
2018-02-24T06:17:32.489Z,1.67
2018-02-24T06:19:58.908Z,2.22
2018-02-24T06:22:25.409Z,1.92
2018-02-24T06:24:51.851Z,4.55
2018-02-24T06:27:18.383Z,2.42
2018-02-24T06:29:45.031Z,1.40
2018-02-24T06:32:11.498Z,2.58
2018-02-24T06:34:38.064Z,2.10
2018-02-24T06:37:04.995Z,2.92
2018-02-24T06:39:31.475Z,2.00
2018-02-24T06:41:57.876Z,1.85
2018-02-24T06:44:24.361Z,2.42
2018-02-24T06:46:50.755Z,2.10
2018-02-24T06:49:17.145Z,2.12
2018-02-24T06:51:43.574Z,2.22
2018-02-24T06:54:10.044Z,2.00
2018-02-24T06:56:36.480Z,1.92
2018-02-24T06:59:02.899Z,2.37
2018-02-24T07:01:30.047Z,2.15
2018-02-24T07:03:57.251Z,2.30
2018-02-24T07:06:23.723Z,2.05
2018-02-24T07:08:50.878Z,2.40
2018-02-24T07:11:17.318Z,2.30
2018-02-24T07:13:43.731Z,1.98
2018-02-24T07:16:10.129Z,2.35
2018-02-24T07:18:36.671Z,2.00
2018-02-24T07:21:03.137Z,1.85
2018-02-24T07:23:29.572Z,2.15
2018-02-24T07:25:55.972Z,2.00
2018-02-24T07:28:22.432Z,2.37
2018-02-24T07:30:48.849Z,2.47
2018-02-24T07:33:15.325Z,2.10
2018-02-24T07:35:42.096Z,2.10
2018-02-24T07:38:08.440Z,2.10
2018-02-24T07:40:34.898Z,2.40
2018-02-24T07:43:01.635Z,2.97
2018-02-24T07:45:28.187Z,2.10
2018-02-24T07:47:55.321Z,2.75
2018-02-24T07:50:21.765Z,2.35
2018-02-24T07:52:48.220Z,2.00
2018-02-24T07:55:14.724Z,1.50
2018-02-24T07:57:41.342Z,1.92
2018-02-24T08:00:07.757Z,2.30
2018-02-24T08:02:34.303Z,2.95
2018-02-24T08:05:00.834Z,2.40
2018-02-24T08:07:27.262Z,2.80
2018-02-24T08:09:53.718Z,1.85
2018-02-24T08:12:20.193Z,1.87
2018-02-24T08:14:46.630Z,1.77
2018-02-24T08:17:13.060Z,2.28
2018-02-24T08:19:39.962Z,1.77
2018-02-24T08:22:06.356Z,2.20
2018-02-24T08:24:32.748Z,2.22
2018-02-24T08:26:59.205Z,1.98
2018-02-24T08:29:25.641Z,2.17
2018-02-24T08:31:52.115Z,1.90
2018-02-24T08:34:18.588Z,2.50
2018-02-24T08:36:45.141Z,2.28
2018-02-24T08:39:11.557Z,1.80
2018-02-24T08:41:38.841Z,1.65
2018-02-24T08:44:05.257Z,1.77
2018-02-24T08:46:31.686Z,2.05
2018-02-24T08:48:58.893Z,3.22
2018-02-24T08:51:26.135Z,2.15
2018-02-24T08:53:59.792Z,1.87
2018-02-24T08:56:26.362Z,1.75
2018-02-24T08:58:53.516Z,1.80
2018-02-24T09:01:20.303Z,2.28
2018-02-24T09:03:46.739Z,2.10
2018-02-24T09:06:13.906Z,2.10
2018-02-24T09:08:41.090Z,2.15
2018-02-24T09:11:07.535Z,2.30
2018-02-24T09:13:34.017Z,1.92
2018-02-24T09:16:01.423Z,2.12
2018-02-24T09:18:27.948Z,1.80
2018-02-24T09:20:54.403Z,2.15
2018-02-24T09:23:20.988Z,2.20
2018-02-24T09:25:47.382Z,1.70
2018-02-24T09:28:13.807Z,3.62
2018-02-24T09:30:40.469Z,2.00
2018-02-24T09:33:06.879Z,1.70
2018-02-24T09:35:33.399Z,1.60
2018-02-24T09:37:59.865Z,1.90
2018-02-24T09:40:26.265Z,2.00
2018-02-24T09:42:53.456Z,2.25
2018-02-24T09:45:20.381Z,2.50
2018-02-24T09:47:46.838Z,1.87
2018-02-24T09:50:13.754Z,2.92
2018-02-24T09:52:40.568Z,1.70
2018-02-24T09:55:07.046Z,2.00
2018-02-24T09:57:33.511Z,1.75
2018-02-24T10:00:00.220Z,1.80
2018-02-24T10:02:26.638Z,2.30
2018-02-24T10:04:53.796Z,2.10
2018-02-24T10:07:21.073Z,2.22
2018-02-24T10:09:47.541Z,1.67
2018-02-24T10:12:13.917Z,2.03
2018-02-24T10:14:40.445Z,2.15
2018-02-24T10:17:06.878Z,1.90
2018-02-24T10:19:33.385Z,2.17
2018-02-24T10:21:59.893Z,2.20
2018-02-24T10:24:26.345Z,1.90
2018-02-24T10:26:52.872Z,2.40
2018-02-24T10:29:19.712Z,2.10
2018-02-24T10:31:46.231Z,1.95
2018-02-24T10:34:12.663Z,1.83
2018-02-24T10:36:39.272Z,1.70
2018-02-24T10:39:05.738Z,1.98
2018-02-24T10:41:32.173Z,2.47
2018-02-24T10:43:58.725Z,2.00
2018-02-24T10:46:25.193Z,2.20
2018-02-24T10:49:04.623Z,1.60
2018-02-24T10:51:31.776Z,2.03
2018-02-24T10:53:58.994Z,2.42
2018-02-24T10:56:25.483Z,1.62
2018-02-24T10:58:51.905Z,1.90
2018-02-24T11:01:18.430Z,2.53
2018-02-24T11:03:45.029Z,1.80
2018-02-24T11:06:11.453Z,2.25
2018-02-24T11:08:38.521Z,1.80
2018-02-24T11:11:05.005Z,2.10
2018-02-24T11:13:31.537Z,1.92
2018-02-24T11:15:57.932Z,1.87
2018-02-24T11:18:24.555Z,2.30
2018-02-24T11:20:51.749Z,2.60
2018-02-24T11:23:18.196Z,1.58
2018-02-24T11:25:44.721Z,1.80
2018-02-24T11:28:11.166Z,2.25
2018-02-24T11:30:37.685Z,2.50
2018-02-24T11:33:04.127Z,3.00
2018-02-24T11:35:30.762Z,1.65
2018-02-24T11:37:57.996Z,1.70
2018-02-24T11:40:24.508Z,2.00
2018-02-24T11:42:51.723Z,2.20
2018-02-24T11:45:18.764Z,1.80
2018-02-24T11:47:45.390Z,2.40
2018-02-24T11:50:11.934Z,1.95
2018-02-24T11:52:38.440Z,2.20
2018-02-24T11:55:04.925Z,2.78
2018-02-24T11:57:31.807Z,2.35
2018-02-24T11:59:58.297Z,2.62
2018-02-24T12:02:24.881Z,1.95
2018-02-24T12:04:51.397Z,2.42
2018-02-24T12:07:17.828Z,2.33
2018-02-24T12:09:44.452Z,2.25
2018-02-24T12:12:11.825Z,2.20
2018-02-24T12:14:38.319Z,2.15
2018-02-24T12:17:05.600Z,2.80
2018-02-24T12:19:32.180Z,1.95
2018-02-24T12:21:58.640Z,1.85
2018-02-24T12:24:25.379Z,2.00
2018-02-24T12:26:52.341Z,1.27
2018-02-24T12:29:18.825Z,1.62
2018-02-24T12:31:45.424Z,1.67
2018-02-24T12:34:11.907Z,1.80
2018-02-24T12:36:38.294Z,2.37
2018-02-24T12:39:04.771Z,2.25
2018-02-24T12:41:31.264Z,1.83
2018-02-24T12:43:57.728Z,2.10
2018-02-24T12:46:24.210Z,1.42
2018-02-24T12:48:50.949Z,2.15
2018-02-24T12:51:17.441Z,1.95
2018-02-24T12:53:43.932Z,2.35
2018-02-24T12:56:10.488Z,2.08
2018-02-24T12:58:36.975Z,2.12
2018-02-24T13:01:03.434Z,2.30
2018-02-24T13:03:30.317Z,1.98
2018-02-24T13:05:56.755Z,2.28
2018-02-24T13:08:23.145Z,2.42
2018-02-24T13:10:49.584Z,2.00
2018-02-24T13:13:16.023Z,2.42
2018-02-24T13:15:42.428Z,2.42
2018-02-24T13:18:09.184Z,2.33
2018-02-24T13:20:35.550Z,2.35
2018-02-24T13:23:02.008Z,1.55
2018-02-24T13:25:28.968Z,1.90
2018-02-24T13:27:55.863Z,2.12
2018-02-24T13:30:22.330Z,2.70
2018-02-24T13:32:48.861Z,2.10
2018-02-24T13:35:15.286Z,1.77
2018-02-24T13:37:41.773Z,1.98
2018-02-24T13:40:08.222Z,1.98
2018-02-24T13:42:34.723Z,2.42
2018-02-24T13:45:01.921Z,1.95
2018-02-24T13:47:28.472Z,1.73
2018-02-24T13:49:54.941Z,2.08
2018-02-24T13:52:22.185Z,2.85
2018-02-24T13:54:48.894Z,2.10
2018-02-24T13:57:15.493Z,2.43
2018-02-24T13:59:42.788Z,2.30
2018-02-24T14:02:09.233Z,1.98
2018-02-24T14:04:35.717Z,2.17
2018-02-24T14:07:02.144Z,1.85
2018-02-24T14:09:29.500Z,2.30
2018-02-24T14:11:56.664Z,2.08
2018-02-24T14:14:23.132Z,2.25
2018-02-24T14:16:49.801Z,2.15
2018-02-24T14:19:16.511Z,2.50
2018-02-24T14:21:43.073Z,2.12
2018-02-24T14:24:09.698Z,2.53
2018-02-24T14:26:36.159Z,2.10
2018-02-24T14:29:02.627Z,2.40
2018-02-24T14:31:29.034Z,1.98
2018-02-24T14:33:56.529Z,2.05
2018-02-24T14:36:22.976Z,1.98
2018-02-24T14:38:49.421Z,2.10
2018-02-24T14:41:15.854Z,2.35
2018-02-24T14:43:42.296Z,2.50
2018-02-24T14:46:08.707Z,2.30
2018-02-24T14:48:35.466Z,2.30
2018-02-24T14:51:02.651Z,2.12
2018-02-24T14:53:29.203Z,2.60
2018-02-24T14:55:55.659Z,2.37
2018-02-24T14:58:22.068Z,2.40
2018-02-24T15:00:48.532Z,2.50
2018-02-24T15:03:14.984Z,2.20
2018-02-24T15:05:41.485Z,1.90
2018-02-24T15:08:07.877Z,1.85
2018-02-24T15:10:35.068Z,2.20
2018-02-24T15:13:01.568Z,1.90
2018-02-24T15:15:27.996Z,3.28
2018-02-24T15:17:54.525Z,1.62
2018-02-24T15:20:21.028Z,2.12
2018-02-24T15:22:47.617Z,3.20
2018-02-24T15:25:14.194Z,1.90
2018-02-24T15:27:40.661Z,2.17
2018-02-24T15:30:07.170Z,2.10
2018-02-24T15:32:33.936Z,2.25
2018-02-24T15:35:00.361Z,2.93
2018-02-24T15:37:26.791Z,2.50
2018-02-24T15:39:53.970Z,2.22
2018-02-24T15:42:20.594Z,2.22
2018-02-24T15:44:47.007Z,1.95
2018-02-24T15:47:14.194Z,2.10
2018-02-24T15:49:42.287Z,2.63
2018-02-24T15:52:08.909Z,2.40
2018-02-24T15:54:36.241Z,2.12
2018-02-24T15:57:03.411Z,2.47
2018-02-24T15:59:29.898Z,2.40
2018-02-24T16:01:56.681Z,1.30
2018-02-24T16:04:23.050Z,2.37
2018-02-24T16:06:50.671Z,2.95
2018-02-24T16:09:17.656Z,2.97
2018-02-24T16:11:44.218Z,3.15
2018-02-24T16:14:11.166Z,2.20
2018-02-24T16:16:37.950Z,2.62
2018-02-24T16:19:06.304Z,2.60
2018-02-24T16:21:34.516Z,2.58
2018-02-24T16:24:03.109Z,2.40
2018-02-24T16:26:32.295Z,1.87
2018-02-24T16:28:59.200Z,2.25
2018-02-24T16:31:25.637Z,2.37
2018-02-24T16:33:52.219Z,2.60
2018-02-24T16:36:19.236Z,2.22
2018-02-24T16:38:46.487Z,2.90
2018-02-24T16:41:12.958Z,2.60
2018-02-24T16:43:39.607Z,2.90
2018-02-24T16:46:06.871Z,3.05
2018-02-24T16:48:33.564Z,2.15
2018-02-24T16:51:01.461Z,2.53
2018-02-24T16:53:28.682Z,2.50
2018-02-24T16:55:55.965Z,3.00
2018-02-24T16:58:22.545Z,2.28
2018-02-24T17:00:48.952Z,2.78
2018-02-24T17:03:15.401Z,2.95
2018-02-24T17:05:42.637Z,3.08
2018-02-24T17:08:09.339Z,2.10
2018-02-24T17:10:35.747Z,2.37
2018-02-24T17:13:02.282Z,3.15
2018-02-24T17:15:28.782Z,2.08
2018-02-24T17:17:55.186Z,3.05
2018-02-24T17:20:22.051Z,2.95
2018-02-24T17:22:48.513Z,3.10
2018-02-24T17:25:15.067Z,3.10
2018-02-24T17:27:41.784Z,3.20
2018-02-24T17:30:08.251Z,3.20
2018-02-24T17:32:34.677Z,4.07
2018-02-24T17:35:01.528Z,4.78
2018-02-24T17:37:28.108Z,2.80
2018-02-24T17:39:54.491Z,3.10
2018-02-24T17:42:21.784Z,3.12
2018-02-24T17:44:48.239Z,3.05
2018-02-24T17:47:14.653Z,3.45
2018-02-24T17:49:41.120Z,3.08
2018-02-24T17:52:07.528Z,3.67
2018-02-24T17:54:34.633Z,3.28
2018-02-24T17:57:01.161Z,3.58
2018-02-24T17:59:27.607Z,4.03
2018-02-24T18:01:54.020Z,3.25
2018-02-24T18:04:20.781Z,4.05
2018-02-24T18:06:47.188Z,3.72
2018-02-24T18:09:14.371Z,4.20
2018-02-24T18:11:41.480Z,3.85
2018-02-24T18:14:07.888Z,3.15
2018-02-24T18:16:35.046Z,4.40
2018-02-24T18:19:01.734Z,3.87
2018-02-24T18:21:28.160Z,4.90
2018-02-24T18:23:54.571Z,6.68
2018-02-24T18:26:21.060Z,4.40
2018-02-24T18:28:48.266Z,4.20
2018-02-24T18:31:15.475Z,5.75
2018-02-24T18:33:41.978Z,3.80
2018-02-24T18:36:08.410Z,4.40
2018-02-24T18:38:34.790Z,4.87
2018-02-24T18:41:02.505Z,4.07
2018-02-24T18:43:30.507Z,4.30
2018-02-24T18:45:57.753Z,4.50
2018-02-24T18:48:25.925Z,5.18
2018-02-24T18:50:53.100Z,4.12
2018-02-24T18:53:19.582Z,5.07
2018-02-24T18:55:46.057Z,6.57
2018-02-24T18:58:13.274Z,5.47
2018-02-24T19:00:39.776Z,5.73
2018-02-24T19:03:06.481Z,5.97
2018-02-24T19:05:32.931Z,5.43
2018-02-24T19:07:59.633Z,4.05
2018-02-24T19:10:26.481Z,4.82
2018-02-24T19:12:53.639Z,5.05
2018-02-24T19:15:20.269Z,5.53
2018-02-24T19:17:46.917Z,6.62
2018-02-24T19:20:13.538Z,4.30
2018-02-24T19:22:40.087Z,3.55
2018-02-24T19:25:07.493Z,4.18
2018-02-24T19:27:34.028Z,5.55
2018-02-24T19:30:03.831Z,5.85
2018-02-24T19:32:30.450Z,4.70
2018-02-24T19:34:56.985Z,4.15
2018-02-24T19:37:24.116Z,4.50
2018-02-24T19:39:51.222Z,4.28
2018-02-24T19:42:17.665Z,5.00
2018-02-24T19:44:44.176Z,4.65
2018-02-24T19:47:11.540Z,3.97
2018-02-24T19:49:37.998Z,3.67
2018-02-24T19:52:04.414Z,3.90
2018-02-24T19:54:32.717Z,2.72
2018-02-24T19:56:59.237Z,3.40
2018-02-24T19:59:25.682Z,3.78
2018-02-24T20:01:52.609Z,2.55
2018-02-24T20:04:19.008Z,4.78
2018-02-24T20:06:46.144Z,3.83
2018-02-24T20:09:13.378Z,3.37
2018-02-24T20:11:39.801Z,4.18
2018-02-24T20:14:06.267Z,3.40
2018-02-24T20:16:33.254Z,3.75
2018-02-24T20:18:59.689Z,4.03
2018-02-24T20:21:26.197Z,3.67
2018-02-24T20:23:53.465Z,4.95
2018-02-24T20:26:20.891Z,4.25
2018-02-24T20:28:48.045Z,3.58
2018-02-24T20:31:15.684Z,4.57
2018-02-24T20:33:43.517Z,3.97
2018-02-24T20:36:10.917Z,3.72
2018-02-24T20:38:38.207Z,3.17
2018-02-24T20:41:04.640Z,3.57
2018-02-24T20:43:31.193Z,4.15
2018-02-24T20:45:58.039Z,4.00
2018-02-24T20:48:25.422Z,4.18
2018-02-24T20:50:51.796Z,3.45
2018-02-24T20:53:18.245Z,3.72
2018-02-24T20:55:44.840Z,3.30
2018-02-24T20:58:13.417Z,5.50
2018-02-24T21:00:39.977Z,4.07
2018-02-24T21:03:07.170Z,3.40
2018-02-24T21:05:33.609Z,3.30
2018-02-24T21:08:00.647Z,4.57
2018-02-24T21:10:27.049Z,3.33
2018-02-24T21:12:54.223Z,4.50
2018-02-24T21:15:21.162Z,3.77
2018-02-24T21:17:47.549Z,4.70
2018-02-24T21:20:13.954Z,5.93
2018-02-24T21:22:40.765Z,3.60
2018-02-24T21:25:07.208Z,4.28
2018-02-24T21:27:33.723Z,7.97
2018-02-24T21:30:00.877Z,7.37
2018-02-24T21:32:28.006Z,4.57
2018-02-24T21:34:54.433Z,3.47
2018-02-24T21:37:20.913Z,3.22
2018-02-24T21:39:47.357Z,3.37
2018-02-24T21:42:13.788Z,3.35
2018-02-24T21:44:40.251Z,3.87
2018-02-24T21:47:06.731Z,4.00
2018-02-24T21:49:33.964Z,3.80
2018-02-24T21:52:00.540Z,4.72
2018-02-24T21:54:27.494Z,5.80
2018-02-24T21:56:53.941Z,3.62
2018-02-24T21:59:20.392Z,4.18
2018-02-24T22:01:46.771Z,7.12
2018-02-24T22:04:13.488Z,2.83
2018-02-24T22:06:40.667Z,2.83
2018-02-24T22:09:07.115Z,2.78
2018-02-24T22:11:33.580Z,3.28
2018-02-24T22:14:00.044Z,3.33
2018-02-24T22:16:27.216Z,3.30
2018-02-24T22:18:53.637Z,2.35
2018-02-24T22:21:20.820Z,2.85
2018-02-24T22:23:47.194Z,3.12
2018-02-24T22:26:13.665Z,3.10
2018-02-24T22:28:40.083Z,3.37
2018-02-24T22:31:06.536Z,2.87
2018-02-24T22:33:32.975Z,2.95
2018-02-24T22:35:59.530Z,3.17
2018-02-24T22:38:25.949Z,2.95
2018-02-24T22:40:52.359Z,3.15
2018-02-24T22:43:19.848Z,3.20
2018-02-24T22:45:46.270Z,2.45
2018-02-24T22:48:18.772Z,2.97
2018-02-24T22:50:45.740Z,3.08
2018-02-24T22:53:12.122Z,2.58
2018-02-24T22:55:39.285Z,3.17
2018-02-24T22:58:05.756Z,2.87
2018-02-24T23:00:32.196Z,2.70
2018-02-24T23:02:58.594Z,3.28
2018-02-24T23:05:25.315Z,2.87
2018-02-24T23:07:51.710Z,3.62
2018-02-24T23:10:18.940Z,2.80
2018-02-24T23:12:45.660Z,2.90
2018-02-24T23:15:12.077Z,2.28
2018-02-24T23:17:38.485Z,2.70
2018-02-24T23:20:06.396Z,3.12
2018-02-24T23:22:32.812Z,2.65
2018-02-24T23:24:59.232Z,2.30
2018-02-24T23:27:25.678Z,2.22
2018-02-24T23:29:52.162Z,2.03
2018-02-24T23:32:18.634Z,2.25
2018-02-24T23:34:45.387Z,2.10
2018-02-24T23:37:11.793Z,2.35
2018-02-24T23:39:38.230Z,2.15
2018-02-24T23:42:04.721Z,2.42
2018-02-24T23:44:31.953Z,1.70
2018-02-24T23:46:58.372Z,2.25
2018-02-24T23:49:25.145Z,2.30
2018-02-24T23:51:51.546Z,2.00
2018-02-24T23:54:17.925Z,2.20
2018-02-24T23:56:44.805Z,2.05
2018-02-24T23:59:11.958Z,2.45
